Syn Turais — IBEJ — position and weather

sailwx.info

Track history (hours):
 
Tides and Currents Weather Stations Pressure Air Temp Water Temp Dewpoint Dewpoint Depression Visibility Wind Speed Wind Dir Waves Ship Positions

Syn Turais

Last reported at 2017-Nov-23 09:13 UTC. Time now 2017-Nov-24 15:10 UTC.
Position N 36°25' E 022°59'.

Length 95 m; draft 5.5 m.

Type: Ship (hazmat cat A). MMSI: 247325600.

Date/timePositionNaut miles runAvg speedWind from/ knotsBaromVisibWave heightAir tempDewpointWater temp
2017-Nov-23 09:13N 36°25' E 022°59'312.3
2017-Nov-23 08:57N 36°25' E 023°03'5012.0
2017-Nov-23 04:49N 37°03' E 023°42'6312.4
2017-Nov-22 23:44N 37°53' E 024°30'312.6
2017-Nov-22 23:30N 37°55' E 024°33'612.3
2017-Nov-22 23:00N 38°00' E 024°37'612.0
2017-Nov-22 22:28N 38°06' E 024°39'4212.3
2017-Nov-22 19:02N 38°44' E 024°15'  
2017-Nov-16 11:39N 36°41' E 014°29'212.9
2017-Nov-16 11:30N 36°41' E 014°27'613.0
2017-Nov-16 11:00N 36°44' E 014°20'713.2
2017-Nov-16 10:30N 36°48' E 014°12'713.1
2017-Nov-16 10:00N 36°50' E 014°05'713.3
2017-Nov-16 09:30N 36°53' E 013°57'713.3
2017-Nov-16 09:00N 36°56' E 013°50'713.2
2017-Nov-16 08:30N 36°58' E 013°42'3 5.0
2017-Nov-16 08:00N 36°60' E 013°39'0 0.8
2017-Nov-16 07:29N 36°60' E 013°39'4 8.5
2017-Nov-16 07:00N 37°03' E 013°36'  
Track history (hours):
 
Tides and Currents Weather Stations Pressure Air Temp Water Temp Dewpoint Dewpoint Depression Visibility Wind Speed Wind Dir Waves Ship Positions

Syn Turais

Last reported at 2017-Nov-23 09:13 UTC. Time now 2017-Nov-24 15:10 UTC.
Position N 36°25' E 022°59'.

Length 95 m; draft 5.5 m.

Type: Ship (hazmat cat A). MMSI: 247325600.

Date/timePositionNaut miles runAvg speedWind from/ knotsBaromVisibWave heightAir tempDewpointWater temp
2017-Nov-23 09:13N 36°25' E 022°59'312.3
2017-Nov-23 08:57N 36°25' E 023°03'5012.0
2017-Nov-23 04:49N 37°03' E 023°42'6312.4
2017-Nov-22 23:44N 37°53' E 024°30'312.6
2017-Nov-22 23:30N 37°55' E 024°33'612.3
2017-Nov-22 23:00N 38°00' E 024°37'612.0
2017-Nov-22 22:28N 38°06' E 024°39'4212.3
2017-Nov-22 19:02N 38°44' E 024°15'  
2017-Nov-16 11:39N 36°41' E 014°29'212.9
2017-Nov-16 11:30N 36°41' E 014°27'613.0
2017-Nov-16 11:00N 36°44' E 014°20'713.2
2017-Nov-16 10:30N 36°48' E 014°12'713.1
2017-Nov-16 10:00N 36°50' E 014°05'713.3
2017-Nov-16 09:30N 36°53' E 013°57'713.3
2017-Nov-16 09:00N 36°56' E 013°50'713.2
2017-Nov-16 08:30N 36°58' E 013°42'3 5.0
2017-Nov-16 08:00N 36°60' E 013°39'0 0.8
2017-Nov-16 07:29N 36°60' E 013°39'4 8.5
2017-Nov-16 07:00N 37°03' E 013°36'  

Dump ship's entire track history